createdAt,value
2022-08-19T00:02:04.990Z,6.88
2022-08-19T00:05:07.515Z,6.53
2022-08-19T00:08:09.429Z,6.15
2022-08-19T00:11:11.719Z,6.43
2022-08-19T00:14:27.555Z,6.80
2022-08-19T00:17:29.480Z,6.55
2022-08-19T00:20:32.785Z,6.80
2022-08-19T00:23:37.315Z,6.38
2022-08-19T00:26:40.138Z,6.90
2022-08-19T00:29:41.965Z,6.80
2022-08-19T00:32:44.050Z,7.15
2022-08-19T00:35:45.819Z,6.95
2022-08-19T00:38:57.912Z,7.57
2022-08-19T00:41:59.758Z,7.10
2022-08-19T00:45:01.734Z,6.85
2022-08-19T00:48:05.534Z,7.53
2022-08-19T00:51:17.170Z,7.85
2022-08-19T00:54:20.681Z,7.13
2022-08-19T00:57:41.220Z,7.25
2022-08-19T01:00:43.159Z,7.65
2022-08-19T01:03:57.577Z,8.25
2022-08-19T01:07:00.828Z,7.63
2022-08-19T01:10:05.099Z,7.72
2022-08-19T01:13:07.022Z,7.68
2022-08-19T01:16:11.999Z,7.95
2022-08-19T01:19:28.674Z,7.45
2022-08-19T01:22:59.596Z,7.93
2022-08-19T01:26:02.034Z,7.70
2022-08-19T01:29:05.150Z,8.63
2022-08-19T01:32:08.254Z,8.05
2022-08-19T01:35:32.464Z,7.90
2022-08-19T01:38:44.105Z,8.40
2022-08-19T01:41:47.082Z,8.45
2022-08-19T01:44:50.042Z,8.68
2022-08-19T01:48:01.293Z,8.43
2022-08-19T01:51:04.740Z,8.43
2022-08-19T01:54:06.684Z,8.80
2022-08-19T01:57:13.246Z,8.70
2022-08-19T02:00:17.405Z,8.50
2022-08-19T02:03:19.205Z,9.30
2022-08-19T02:06:21.303Z,8.63
2022-08-19T02:09:28.775Z,8.32
2022-08-19T02:12:30.653Z,8.85
2022-08-19T02:15:33.065Z,8.32
2022-08-19T02:18:34.691Z,8.57
2022-08-19T02:21:36.447Z,8.48
2022-08-19T02:24:38.374Z,8.50
2022-08-19T02:27:41.595Z,9.02
2022-08-19T02:30:43.921Z,7.93
2022-08-19T02:33:46.881Z,8.07
2022-08-19T02:36:50.616Z,7.80
2022-08-19T02:39:53.905Z,8.90
2022-08-19T02:42:55.977Z,8.43
2022-08-19T02:45:58.067Z,8.07
2022-08-19T02:49:04.801Z,7.68
2022-08-19T02:52:07.633Z,7.80
2022-08-19T02:55:09.491Z,8.43
2022-08-19T02:58:11.603Z,7.50
2022-08-19T03:01:21.659Z,8.02
2022-08-19T03:04:24.328Z,8.25
2022-08-19T03:07:26.071Z,8.50
2022-08-19T03:10:27.899Z,8.65
2022-08-19T03:13:30.209Z,8.73
2022-08-19T03:16:41.428Z,8.25
2022-08-19T03:19:44.096Z,8.45
2022-08-19T03:22:45.756Z,8.57
2022-08-19T03:26:03.049Z,9.25
2022-08-19T03:29:13.272Z,8.75
2022-08-19T03:32:29.706Z,8.48
2022-08-19T03:35:37.733Z,8.48
2022-08-19T03:38:45.789Z,8.52
2022-08-19T03:42:38.341Z,8.88
2022-08-19T03:45:13.105Z,8.75
2022-08-19T03:48:15.171Z,8.88
2022-08-19T03:51:30.610Z,8.40
2022-08-19T03:54:32.697Z,8.48
2022-08-19T03:57:35.552Z,8.55
2022-08-19T04:00:37.539Z,8.57
2022-08-19T04:03:40.529Z,8.18
2022-08-19T04:06:42.443Z,8.20
2022-08-19T04:09:44.447Z,8.13
2022-08-19T04:12:47.445Z,8.57
2022-08-19T04:15:50.807Z,8.07
2022-08-19T04:18:52.723Z,8.10
2022-08-19T04:21:55.423Z,8.52
2022-08-19T04:24:57.123Z,8.38
2022-08-19T04:27:58.879Z,8.35
2022-08-19T04:31:00.659Z,8.50
2022-08-19T04:34:05.382Z,8.38
2022-08-19T04:37:15.246Z,7.78
2022-08-19T04:40:35.224Z,7.88
2022-08-19T04:43:39.421Z,7.32
2022-08-19T04:46:51.472Z,7.88
2022-08-19T04:49:53.757Z,7.75
2022-08-19T04:52:57.502Z,8.15
2022-08-19T04:56:00.361Z,7.97
2022-08-19T04:59:05.452Z,7.53
2022-08-19T05:02:09.599Z,7.90
2022-08-19T05:05:11.590Z,8.55
2022-08-19T05:08:19.616Z,7.97
2022-08-19T05:11:40.079Z,7.80
2022-08-19T05:14:41.832Z,8.35
2022-08-19T05:18:03.403Z,8.27
2022-08-19T05:21:35.888Z,7.95
2022-08-19T05:24:51.227Z,8.85
2022-08-19T05:27:59.838Z,9.43
2022-08-19T05:31:01.498Z,9.27
2022-08-19T05:34:05.540Z,10.07
2022-08-19T05:37:20.509Z,9.63
2022-08-19T05:40:22.443Z,10.23
2022-08-19T05:43:24.629Z,9.40
2022-08-19T05:46:28.083Z,10.82
2022-08-19T05:49:30.621Z,10.77
2022-08-19T05:52:33.568Z,10.48
2022-08-19T05:55:36.403Z,10.88
2022-08-19T05:58:39.039Z,10.82
2022-08-19T06:01:43.486Z,10.63
2022-08-19T06:04:45.279Z,11.82
2022-08-19T06:07:47.015Z,11.32
2022-08-19T06:10:48.971Z,10.75
2022-08-19T06:13:59.387Z,12.13
2022-08-19T06:17:06.873Z,10.98
2022-08-19T06:20:14.318Z,11.05
2022-08-19T06:23:17.144Z,11.07
2022-08-19T06:26:20.682Z,11.88
2022-08-19T06:29:24.856Z,11.65
2022-08-19T06:32:26.709Z,12.50
2022-08-19T06:35:30.523Z,12.10
2022-08-19T06:38:34.552Z,12.10
2022-08-19T06:41:43.649Z,12.02
2022-08-19T06:44:53.253Z,11.20
2022-08-19T06:47:57.034Z,12.05
2022-08-19T06:50:58.795Z,12.65
2022-08-19T06:54:01.293Z,12.15
2022-08-19T06:57:03.216Z,13.25
2022-08-19T07:00:12.939Z,12.73
2022-08-19T07:03:15.110Z,12.32
2022-08-19T07:06:43.303Z,11.98
2022-08-19T07:09:42.676Z,12.00
2022-08-19T07:12:44.860Z,11.90
2022-08-19T07:15:48.103Z,11.95
2022-08-19T07:18:51.354Z,12.20
2022-08-19T07:22:01.942Z,12.32
2022-08-19T07:25:05.059Z,11.02
2022-08-19T07:28:08.637Z,10.15
2022-08-19T07:31:25.892Z,8.70
2022-08-19T07:34:29.699Z,8.25
2022-08-19T07:37:33.436Z,8.18
2022-08-19T07:40:35.358Z,8.20
2022-08-19T07:43:37.681Z,7.45
2022-08-19T07:46:42.085Z,7.00
2022-08-19T07:49:43.837Z,7.25
2022-08-19T07:52:49.031Z,6.78
2022-08-19T07:55:52.700Z,6.72
2022-08-19T08:01:57.653Z,5.18
2022-08-19T08:05:18.808Z,5.85
2022-08-19T08:08:37.085Z,6.35
2022-08-19T08:11:53.532Z,6.05
2022-08-19T08:14:58.866Z,6.32
2022-08-19T08:18:00.672Z,6.15
2022-08-19T08:21:03.177Z,5.90
2022-08-19T08:24:05.118Z,6.13
2022-08-19T08:27:11.259Z,5.60
2022-08-19T08:30:17.759Z,4.97
2022-08-19T08:33:32.916Z,5.13
2022-08-19T08:36:42.817Z,5.65
2022-08-19T08:39:44.933Z,4.60
2022-08-19T08:42:56.232Z,5.13
2022-08-19T08:46:14.026Z,4.90
2022-08-19T08:49:57.188Z,5.28
2022-08-19T08:52:59.892Z,4.72
2022-08-19T08:56:06.709Z,4.65
2022-08-19T08:59:20.709Z,4.80
2022-08-19T09:02:22.720Z,4.68
2022-08-19T09:05:39.664Z,4.32
2022-08-19T09:09:16.796Z,4.20
2022-08-19T09:12:58.410Z,3.90
2022-08-19T09:16:27.945Z,4.82
2022-08-19T09:19:30.871Z,4.35
2022-08-19T09:22:33.499Z,5.38
2022-08-19T09:25:35.540Z,3.75
2022-08-19T09:28:37.999Z,3.85
2022-08-19T09:31:41.091Z,3.92
2022-08-19T09:34:44.034Z,4.10
2022-08-19T09:37:46.651Z,3.50
2022-08-19T09:40:50.375Z,3.13
2022-08-19T09:43:56.917Z,2.60
2022-08-19T09:46:58.877Z,2.20
2022-08-19T09:50:00.597Z,2.95
2022-08-19T09:53:02.557Z,1.98
2022-08-19T09:56:06.565Z,2.10
2022-08-19T09:59:11.211Z,2.20
2022-08-19T10:02:13.170Z,1.80
2022-08-19T10:05:33.391Z,1.65
2022-08-19T10:08:38.131Z,1.80
2022-08-19T10:11:54.729Z,1.50
2022-08-19T10:14:57.305Z,1.80
2022-08-19T10:18:00.379Z,1.80
2022-08-19T10:21:09.816Z,2.00
2022-08-19T10:24:13.622Z,2.10
2022-08-19T10:27:15.411Z,2.22
2022-08-19T10:30:17.977Z,1.90
2022-08-19T10:33:38.548Z,1.90
2022-08-19T10:36:54.366Z,2.13
2022-08-19T10:40:03.271Z,1.70
2022-08-19T10:43:05.835Z,1.65
2022-08-19T10:46:13.786Z,2.00
2022-08-19T10:49:16.474Z,2.03
2022-08-19T10:52:34.733Z,2.17
2022-08-19T10:55:59.347Z,2.08
2022-08-19T10:59:01.495Z,1.90
2022-08-19T11:02:06.178Z,1.80
2022-08-19T11:05:12.590Z,2.13
2022-08-19T11:08:23.023Z,1.60
2022-08-19T11:11:25.680Z,1.90
2022-08-19T11:14:29.080Z,1.80
2022-08-19T11:17:35.257Z,1.63
2022-08-19T11:20:38.040Z,2.05
2022-08-19T11:23:40.466Z,1.60
2022-08-19T11:26:44.092Z,1.75
2022-08-19T11:29:46.076Z,1.60
2022-08-19T11:32:49.651Z,1.45
2022-08-19T11:35:51.624Z,1.70
2022-08-19T11:38:54.211Z,1.70
2022-08-19T11:41:56.281Z,1.80
2022-08-19T11:44:58.346Z,1.30
2022-08-19T11:48:00.336Z,1.77
2022-08-19T11:51:12.658Z,1.50
2022-08-19T11:54:17.052Z,1.38
2022-08-19T11:57:20.607Z,1.70
2022-08-19T12:00:22.733Z,1.73
2022-08-19T12:03:25.205Z,1.23
2022-08-19T12:06:33.403Z,1.55
2022-08-19T12:09:35.569Z,1.55
2022-08-19T12:12:41.477Z,1.38
2022-08-19T12:15:43.089Z,1.55
2022-08-19T12:18:47.235Z,1.55
2022-08-19T12:21:49.552Z,1.73
2022-08-19T12:24:53.256Z,1.45
2022-08-19T12:27:57.507Z,1.35
2022-08-19T12:30:59.925Z,1.65
2022-08-19T12:34:03.342Z,1.65
2022-08-19T12:37:07.124Z,1.80
2022-08-19T12:40:09.640Z,1.70
2022-08-19T12:43:12.716Z,1.70
2022-08-19T12:46:15.898Z,1.60
2022-08-19T12:49:52.528Z,1.40
2022-08-19T12:52:43.589Z,1.70
2022-08-19T12:55:45.387Z,1.50
2022-08-19T12:58:48.825Z,1.48
2022-08-19T13:01:53.230Z,1.40
2022-08-19T13:04:55.127Z,1.27
2022-08-19T13:08:00.506Z,1.33
2022-08-19T13:11:16.191Z,1.60
2022-08-19T13:14:18.555Z,1.35
2022-08-19T13:17:21.670Z,1.23
2022-08-19T13:20:24.168Z,1.30
2022-08-19T13:23:26.357Z,1.30
2022-08-19T13:26:28.256Z,1.10
2022-08-19T13:29:49.060Z,1.20
2022-08-19T13:33:11.286Z,1.08
2022-08-19T13:36:13.171Z,0.95
2022-08-19T13:39:15.299Z,1.10
2022-08-19T13:42:19.417Z,1.00
2022-08-19T13:45:25.089Z,1.00
2022-08-19T13:48:28.825Z,0.93
2022-08-19T13:51:31.091Z,1.00
2022-08-19T13:54:33.200Z,1.10
2022-08-19T13:57:56.312Z,1.10
2022-08-19T14:01:09.160Z,1.08
2022-08-19T14:04:31.137Z,1.00
2022-08-19T14:08:02.463Z,1.10
2022-08-19T14:11:20.508Z,1.13
2022-08-19T14:14:23.121Z,1.10
2022-08-19T14:17:26.037Z,1.00
2022-08-19T14:20:28.124Z,1.05
2022-08-19T14:23:30.277Z,1.10
2022-08-19T14:26:32.060Z,1.35
2022-08-19T14:29:35.522Z,1.10
2022-08-19T14:32:37.903Z,1.05
2022-08-19T14:35:39.905Z,1.30
2022-08-19T14:38:42.011Z,1.05
2022-08-19T14:41:44.009Z,0.80
2022-08-19T14:44:46.204Z,1.30
2022-08-19T14:47:48.206Z,1.02
2022-08-19T14:50:50.151Z,1.33
2022-08-19T14:53:52.145Z,1.13
2022-08-19T14:56:53.891Z,1.13
2022-08-19T14:59:55.781Z,1.00
2022-08-19T15:02:58.091Z,1.20
2022-08-19T15:06:07.033Z,1.23
2022-08-19T15:09:09.700Z,1.30
2022-08-19T15:12:12.002Z,1.10
2022-08-19T15:15:23.839Z,1.20
2022-08-19T15:18:25.849Z,1.40
2022-08-19T15:21:30.499Z,1.10
2022-08-19T15:24:33.272Z,1.20
2022-08-19T15:27:37.091Z,1.50
2022-08-19T15:30:41.019Z,1.20
2022-08-19T15:33:43.755Z,1.20
2022-08-19T15:36:45.618Z,1.00
2022-08-19T15:39:47.606Z,0.98
2022-08-19T15:42:50.539Z,1.25
2022-08-19T15:45:52.351Z,1.08
2022-08-19T15:48:57.172Z,1.00
2022-08-19T15:52:02.099Z,1.20
2022-08-19T15:55:06.786Z,1.30
2022-08-19T15:58:31.287Z,1.20
2022-08-19T16:01:51.993Z,1.05
2022-08-19T16:05:13.123Z,1.33
2022-08-19T16:08:15.411Z,1.30
2022-08-19T16:11:22.457Z,1.17
2022-08-19T16:14:25.335Z,1.20
2022-08-19T16:17:27.033Z,1.38
2022-08-19T16:20:29.881Z,1.27
2022-08-19T16:23:31.883Z,1.33
2022-08-19T16:26:34.890Z,1.10
2022-08-19T16:29:39.348Z,1.40
2022-08-19T16:32:44.585Z,1.17
2022-08-19T16:35:52.016Z,1.30
2022-08-19T16:39:02.440Z,1.10
2022-08-19T16:42:07.478Z,1.05
2022-08-19T16:45:09.838Z,1.02
2022-08-19T16:48:11.958Z,1.00
2022-08-19T16:51:14.568Z,0.88
2022-08-19T16:54:18.181Z,1.10
2022-08-19T16:57:20.029Z,1.00
2022-08-19T17:00:22.262Z,1.10
2022-08-19T17:03:36.057Z,1.20
2022-08-19T17:06:39.710Z,1.10
2022-08-19T17:09:41.361Z,1.10
2022-08-19T17:12:43.670Z,1.10
2022-08-19T17:15:45.684Z,1.20
2022-08-19T17:18:52.466Z,1.20
2022-08-19T17:21:54.381Z,1.00
2022-08-19T17:24:58.091Z,1.20
2022-08-19T17:28:12.905Z,1.10
2022-08-19T17:31:16.893Z,0.90
2022-08-19T17:34:18.940Z,1.08
2022-08-19T17:37:21.030Z,1.02
2022-08-19T17:40:24.075Z,1.10
2022-08-19T17:43:33.419Z,1.30
2022-08-19T17:46:36.825Z,1.10
2022-08-19T17:49:39.126Z,1.20
2022-08-19T17:52:41.071Z,1.10
2022-08-19T17:55:43.132Z,1.00
2022-08-19T17:58:59.957Z,1.95
2022-08-19T18:02:02.590Z,1.00
2022-08-19T18:05:05.732Z,1.23
2022-08-19T18:08:10.600Z,1.20
2022-08-19T18:11:12.900Z,0.95
2022-08-19T18:14:15.263Z,1.38
2022-08-19T18:17:19.432Z,1.23
2022-08-19T18:20:21.667Z,1.13
2022-08-19T18:23:44.527Z,1.20
2022-08-19T18:26:47.480Z,1.10
2022-08-19T18:29:49.340Z,1.20
2022-08-19T18:32:53.294Z,1.70
2022-08-19T18:35:55.300Z,1.80
2022-08-19T18:39:15.835Z,1.08
2022-08-19T18:42:37.357Z,1.17
2022-08-19T18:45:59.329Z,1.23
2022-08-19T18:49:08.177Z,1.58
2022-08-19T18:52:10.025Z,1.20
2022-08-19T18:55:12.266Z,1.48
2022-08-19T18:58:14.544Z,1.50
2022-08-19T19:01:27.186Z,1.48
2022-08-19T19:04:36.593Z,1.45
2022-08-19T19:07:39.652Z,1.13
2022-08-19T19:10:42.427Z,1.00
2022-08-19T19:13:47.058Z,1.08
2022-08-19T19:16:50.192Z,3.28
2022-08-19T19:19:51.935Z,1.63
2022-08-19T19:22:55.289Z,1.30
2022-08-19T19:26:00.805Z,1.50
2022-08-19T19:29:02.445Z,1.33
2022-08-19T19:32:08.196Z,1.10
2022-08-19T19:35:10.722Z,1.20
2022-08-19T19:38:12.462Z,1.27
2022-08-19T19:41:16.269Z,1.40
2022-08-19T19:44:30.487Z,1.52
2022-08-19T19:47:32.732Z,1.30
2022-08-19T19:50:34.619Z,1.30
2022-08-19T19:53:36.677Z,1.38
2022-08-19T19:56:38.387Z,1.20
2022-08-19T19:59:44.800Z,1.17
2022-08-19T20:02:55.939Z,2.42
2022-08-19T20:05:59.289Z,1.30
2022-08-19T20:09:17.554Z,1.60
2022-08-19T20:12:21.341Z,1.85
2022-08-19T20:15:24.307Z,1.80
2022-08-19T20:18:26.337Z,1.60
2022-08-19T20:21:31.433Z,1.40
2022-08-19T20:24:36.345Z,1.50
2022-08-19T20:27:39.924Z,1.58
2022-08-19T20:30:45.588Z,1.50
2022-08-19T20:33:49.388Z,1.70
2022-08-19T20:36:51.096Z,1.58
2022-08-19T20:39:52.841Z,1.70
2022-08-19T20:42:55.143Z,1.65
2022-08-19T20:45:57.036Z,1.60
2022-08-19T20:48:59.938Z,2.03
2022-08-19T20:52:03.791Z,1.40
2022-08-19T20:55:05.852Z,1.35
2022-08-19T20:58:07.593Z,1.50
2022-08-19T21:01:10.784Z,1.50
2022-08-19T21:04:12.722Z,1.42
2022-08-19T21:07:15.970Z,1.38
2022-08-19T21:10:18.223Z,1.55
2022-08-19T21:13:20.935Z,1.42
2022-08-19T21:16:23.006Z,1.40
2022-08-19T21:19:24.940Z,1.33
2022-08-19T21:22:26.576Z,1.42
2022-08-19T21:26:02.525Z,1.50
2022-08-19T21:29:04.545Z,1.40
2022-08-19T21:32:06.983Z,1.70
2022-08-19T21:35:10.397Z,1.77
2022-08-19T21:38:12.241Z,1.52
2022-08-19T21:41:14.875Z,1.77
2022-08-19T21:44:17.785Z,1.60
2022-08-19T21:47:19.632Z,1.70
2022-08-19T21:50:23.863Z,1.75
2022-08-19T21:53:31.470Z,1.50
2022-08-19T21:56:35.108Z,1.80
2022-08-19T21:59:36.820Z,1.70
2022-08-19T22:02:38.969Z,1.50
2022-08-19T22:05:46.591Z,1.73
2022-08-19T22:08:48.408Z,1.60
2022-08-19T22:11:50.030Z,1.48
2022-08-19T22:14:52.922Z,1.50
2022-08-19T22:17:55.128Z,1.70
2022-08-19T22:20:57.872Z,1.63
2022-08-19T22:23:59.805Z,1.98
2022-08-19T22:27:08.670Z,1.70
2022-08-19T22:30:13.145Z,1.90
2022-08-19T22:33:17.268Z,1.70
2022-08-19T22:36:19.827Z,1.50
2022-08-19T22:39:21.729Z,1.70
2022-08-19T22:42:24.878Z,1.70
2022-08-19T22:45:30.756Z,1.60
2022-08-19T22:48:32.819Z,1.52
2022-08-19T22:51:53.005Z,1.70
2022-08-19T22:54:59.136Z,1.75
2022-08-19T22:58:00.988Z,1.55
2022-08-19T23:01:03.044Z,1.52
2022-08-19T23:04:05.728Z,1.60
2022-08-19T23:07:08.324Z,1.90
2022-08-19T23:10:10.875Z,1.95
2022-08-19T23:13:12.750Z,1.60
2022-08-19T23:16:14.549Z,2.05
2022-08-19T23:19:16.986Z,2.00
2022-08-19T23:22:19.368Z,1.95
2022-08-19T23:25:30.564Z,1.77
2022-08-19T23:28:50.883Z,1.80
2022-08-19T23:31:52.812Z,1.83
2022-08-19T23:34:56.441Z,2.00
2022-08-19T23:37:58.500Z,2.47
2022-08-19T23:41:05.820Z,2.25
2022-08-19T23:44:14.568Z,3.50
2022-08-19T23:47:17.035Z,2.97
2022-08-19T23:50:19.973Z,2.90
2022-08-19T23:53:22.532Z,2.05
2022-08-19T23:56:24.247Z,3.00
2022-08-19T23:59:25.910Z,2.22
